Time;durP1;ratioP1;P1;durP2;ratioP2;P2;SDS_P1;SDS_P2;PMS_P1;PMS_P2;Temp;Humidity;BMP_temperature;BMP_pressure;BME280_temperature;BME280_humidity;BME280_pressure;Samples;Min_cycle;Max_cycle;Signal;HPM_P1;HPM_P2
2023/04/30 03:00:43;;;;;;;;;;;18.60;52.60;;;;;;6047379;23;45779;-62
2023/04/30 03:03:09;;;;;;;;;;;18.70;52.70;;;;;;4893755;28;46292;-59
2023/04/30 03:05:34;;;;;;;;;;;18.60;52.60;;;;;;4920801;28;45285;-57
2023/04/30 03:08:00;;;;;;;;;;;18.60;53.20;;;;;;4946335;28;45411;-58
2023/04/30 03:10:25;;;;;;;;;;;18.70;52.60;;;;;;4942175;28;45763;-58
2023/04/30 03:12:52;;;;;;;;;;;18.70;52.60;;;;;;4921019;28;45596;-59
2023/04/30 03:15:18;;;;;;;;;;;18.60;53.20;;;;;;4908409;28;45500;-61
2023/04/30 03:17:44;;;;;;;;;;;18.70;52.60;;;;;;4894551;28;45506;-59
2023/04/30 03:20:09;;;;;;;;;;;18.60;52.60;;;;;;4909101;28;45081;-58
2023/04/30 03:22:35;;;;;;;;;;;18.60;52.60;;;;;;4925505;28;46656;-58
2023/04/30 03:25:00;;;;;;;;;;;18.60;53.20;;;;;;4909020;28;45062;-58
2023/04/30 03:27:26;;;;;;;;;;;18.60;52.60;;;;;;4897149;28;45420;-59
2023/04/30 03:29:51;;;;;;;;;;;18.60;52.60;;;;;;4926074;28;45085;-59
2023/04/30 03:32:17;;;;;;;;;;;18.60;52.60;;;;;;4903118;28;45394;-59
2023/04/30 03:34:42;;;;;;;;;;;18.60;52.60;;;;;;4922760;28;45625;-57
2023/04/30 03:37:08;;;;;;;;;;;18.60;52.60;;;;;;4923302;28;45566;-58
2023/04/30 03:39:33;;;;;;;;;;;18.60;52.60;;;;;;4904706;28;45741;-60
2023/04/30 03:42:00;;;;;;;;;;;18.60;52.60;;;;;;4897225;28;45342;-57
2023/04/30 03:44:25;;;;;;;;;;;18.60;52.60;;;;;;4918576;28;45292;-58
2023/04/30 03:46:51;;;;;;;;;;;18.60;52.60;;;;;;4910652;28;45248;-58
2023/04/30 03:49:16;;;;;;;;;;;18.60;52.70;;;;;;4909115;28;44819;-56
2023/04/30 03:51:42;;;;;;;;;;;18.60;52.60;;;;;;4914698;28;45407;-57
2023/04/30 03:54:08;;;;;;;;;;;18.60;52.60;;;;;;4926210;28;44625;-59
2023/04/30 03:56:33;;;;;;;;;;;18.60;52.60;;;;;;4913352;28;45420;-57
2023/04/30 03:58:59;;;;;;;;;;;18.60;52.60;;;;;;4907612;28;45824;-58
2023/04/30 04:01:25;;;;;;;;;;;18.60;52.60;;;;;;4912219;28;46221;-57
2023/04/30 04:03:50;;;;;;;;;;;18.60;52.70;;;;;;4908648;28;45523;-58
2023/04/30 04:06:15;;;;;;;;;;;18.60;52.70;;;;;;4924844;28;45129;-58
2023/04/30 04:08:44;;;;;;;;;;;18.60;52.60;;;;;;4925362;28;45759;-58
2023/04/30 04:11:10;;;;;;;;;;;18.60;52.70;;;;;;4916971;28;45465;-57
2023/04/30 04:13:35;;;;;;;;;;;18.60;52.70;;;;;;4924370;28;45419;-58
2023/04/30 04:16:01;;;;;;;;;;;18.60;52.70;;;;;;4919549;28;45354;-58
2023/04/30 04:18:26;;;;;;;;;;;18.60;52.70;;;;;;4923163;28;46311;-58
2023/04/30 04:20:53;;;;;;;;;;;18.60;52.70;;;;;;4918804;28;45862;-57
2023/04/30 04:23:18;;;;;;;;;;;18.60;52.70;;;;;;4925487;28;45583;-56
2023/04/30 04:25:45;;;;;;;;;;;18.60;52.70;;;;;;4923807;28;45675;-57
2023/04/30 04:28:11;;;;;;;;;;;18.60;52.70;;;;;;4929455;28;46037;-58
2023/04/30 04:30:36;;;;;;;;;;;18.60;52.70;;;;;;4914658;28;46118;-58
2023/04/30 04:33:02;;;;;;;;;;;18.60;52.70;;;;;;4933138;28;45130;-60
2023/04/30 04:35:28;;;;;;;;;;;18.60;52.70;;;;;;4908886;28;45930;-58
2023/04/30 04:37:53;;;;;;;;;;;18.60;52.70;;;;;;4924955;28;45347;-58
2023/04/30 04:40:19;;;;;;;;;;;18.60;52.70;;;;;;4923605;28;45245;-60
2023/04/30 04:42:48;;;;;;;;;;;18.50;52.60;;;;;;4920040;28;45273;-57
2023/04/30 04:45:14;;;;;;;;;;;18.60;52.70;;;;;;4905954;28;45590;-58
2023/04/30 04:47:40;;;;;;;;;;;18.60;52.70;;;;;;4918552;28;45921;-57
2023/04/30 04:50:06;;;;;;;;;;;18.60;52.70;;;;;;4925892;28;47299;-60
2023/04/30 04:52:32;;;;;;;;;;;18.60;52.70;;;;;;4909957;28;45081;-59
2023/04/30 04:54:57;;;;;;;;;;;18.60;52.70;;;;;;4909959;28;45229;-58
2023/04/30 04:57:23;;;;;;;;;;;18.50;52.60;;;;;;4921525;28;45507;-58
2023/04/30 04:59:48;;;;;;;;;;;18.60;52.70;;;;;;4925147;28;45619;-56
2023/04/30 05:02:14;;;;;;;;;;;18.60;52.70;;;;;;4915498;28;45209;-56
2023/04/30 05:04:40;;;;;;;;;;;18.60;52.70;;;;;;4924751;28;45240;-55
2023/04/30 05:07:06;;;;;;;;;;;18.50;52.60;;;;;;4929156;28;45260;-60
2023/04/30 05:09:32;;;;;;;;;;;18.60;52.60;;;;;;4925486;28;46061;-57
2023/04/30 05:11:58;;;;;;;;;;;18.60;52.70;;;;;;4902859;28;45394;-55
2023/04/30 05:14:23;;;;;;;;;;;18.60;52.70;;;;;;4914559;28;46347;-57
2023/04/30 05:16:49;;;;;;;;;;;18.60;52.70;;;;;;4918069;28;45486;-56
2023/04/30 05:19:14;;;;;;;;;;;18.50;52.60;;;;;;4924868;28;45564;-56
2023/04/30 05:21:40;;;;;;;;;;;18.60;53.30;;;;;;4906485;28;45433;-56
2023/04/30 05:24:05;;;;;;;;;;;18.60;52.60;;;;;;4929157;28;44904;-58
2023/04/30 05:26:31;;;;;;;;;;;18.60;52.60;;;;;;4920179;28;46047;-58
2023/04/30 05:28:56;;;;;;;;;;;18.50;52.60;;;;;;4929224;28;45050;-59
2023/04/30 05:31:22;;;;;;;;;;;18.60;52.60;;;;;;4920091;28;45632;-58
2023/04/30 05:33:47;;;;;;;;;;;18.60;52.60;;;;;;4921843;28;45659;-58
2023/04/30 05:36:13;;;;;;;;;;;18.60;52.60;;;;;;4925572;28;45347;-58
2023/04/30 05:38:38;;;;;;;;;;;18.60;52.60;;;;;;4926331;28;45207;-59
2023/04/30 05:41:04;;;;;;;;;;;18.60;52.60;;;;;;4919730;28;45304;-59
2023/04/30 05:43:29;;;;;;;;;;;18.60;52.60;;;;;;4908474;28;45225;-58
2023/04/30 05:45:55;;;;;;;;;;;18.60;52.60;;;;;;4916246;28;45302;-58
2023/04/30 05:48:20;;;;;;;;;;;18.70;52.50;;;;;;4928084;28;45398;-58
2023/04/30 05:50:46;;;;;;;;;;;18.70;52.40;;;;;;4919900;28;44877;-59
2023/04/30 05:53:12;;;;;;;;;;;18.70;52.30;;;;;;4926569;28;45265;-58
2023/04/30 05:55:37;;;;;;;;;;;18.70;52.30;;;;;;4908144;28;45589;-57
2023/04/30 05:58:03;;;;;;;;;;;18.70;52.20;;;;;;4903324;28;45299;-59
2023/04/30 06:00:28;;;;;;;;;;;18.70;52.80;;;;;;4915242;28;45047;-61
2023/04/30 06:02:54;;;;;;;;;;;18.80;52.20;;;;;;4890745;28;45218;-58
2023/04/30 06:05:19;;;;;;;;;;;18.80;52.20;;;;;;4910255;28;45488;-58
2023/04/30 06:07:45;;;;;;;;;;;18.80;52.20;;;;;;4925045;28;45211;-59
2023/04/30 06:10:11;;;;;;;;;;;18.80;52.10;;;;;;4906055;28;45326;-58
2023/04/30 06:12:37;;;;;;;;;;;18.80;52.00;;;;;;4925809;28;45509;-58
2023/04/30 06:15:02;;;;;;;;;;;18.90;52.40;;;;;;4925823;28;45218;-58
2023/04/30 06:17:28;;;;;;;;;;;19.50;50.70;;;;;;4886319;28;45468;-58
2023/04/30 06:19:53;;;;;;;;;;;19.50;50.40;;;;;;4922079;28;45879;-60
2023/04/30 06:22:19;;;;;;;;;;;19.30;50.90;;;;;;4922406;28;45600;-58
2023/04/30 06:24:44;;;;;;;;;;;19.20;51.10;;;;;;4906161;28;45393;-59
2023/04/30 06:27:10;;;;;;;;;;;19.20;51.30;;;;;;4925011;28;45439;-59
2023/04/30 06:29:35;;;;;;;;;;;19.10;51.40;;;;;;4925096;28;46185;-57
2023/04/30 06:32:01;;;;;;;;;;;19.10;51.50;;;;;;4899880;28;45289;-58
2023/04/30 06:34:26;;;;;;;;;;;19.00;51.50;;;;;;4915276;28;46179;-57
2023/04/30 06:36:52;;;;;;;;;;;19.10;51.60;;;;;;4914271;28;45331;-57
2023/04/30 06:39:17;;;;;;;;;;;19.10;51.60;;;;;;4919462;28;47232;-60
2023/04/30 06:41:43;;;;;;;;;;;19.10;51.60;;;;;;4914429;28;45586;-60
2023/04/30 06:44:09;;;;;;;;;;;19.10;51.60;;;;;;4923246;28;45126;-58
2023/04/30 06:46:34;;;;;;;;;;;19.10;51.70;;;;;;4918082;28;47688;-57
2023/04/30 06:49:00;;;;;;;;;;;19.10;51.60;;;;;;4928405;28;44690;-59
2023/04/30 06:51:25;;;;;;;;;;;19.10;51.60;;;;;;4901488;28;45205;-59
2023/04/30 06:53:51;;;;;;;;;;;19.10;51.50;;;;;;4926025;28;44790;-57
2023/04/30 06:56:16;;;;;;;;;;;19.20;51.50;;;;;;4918963;28;45415;-56
2023/04/30 06:58:42;;;;;;;;;;;19.20;51.40;;;;;;4928368;28;45184;-59
2023/04/30 07:01:07;;;;;;;;;;;19.20;51.30;;;;;;4907384;28;45360;-58
2023/04/30 07:03:34;;;;;;;;;;;19.20;51.40;;;;;;4928118;28;45283;-58
2023/04/30 07:06:00;;;;;;;;;;;19.30;51.40;;;;;;4909742;28;45719;-57
2023/04/30 07:08:25;;;;;;;;;;;19.20;51.30;;;;;;4924010;28;45273;-59
2023/04/30 07:10:51;;;;;;;;;;;19.20;51.30;;;;;;4908396;28;44797;-59
2023/04/30 07:13:17;;;;;;;;;;;19.30;51.40;;;;;;4922060;28;45971;-57
2023/04/30 07:15:42;;;;;;;;;;;19.30;51.30;;;;;;4917609;28;45844;-58
2023/04/30 07:18:08;;;;;;;;;;;19.30;51.30;;;;;;4896164;28;45216;-58
2023/04/30 07:20:34;;;;;;;;;;;19.30;51.30;;;;;;4918455;28;45819;-57
2023/04/30 07:22:59;;;;;;;;;;;19.30;51.30;;;;;;4906290;28;45322;-57
2023/04/30 07:25:25;;;;;;;;;;;19.30;51.30;;;;;;4903890;28;45260;-59
2023/04/30 07:27:52;;;;;;;;;;;19.40;51.20;;;;;;4909273;28;45439;-58
2023/04/30 07:30:17;;;;;;;;;;;19.40;51.20;;;;;;4922582;28;45795;-59
2023/04/30 07:32:43;;;;;;;;;;;19.40;51.20;;;;;;4918487;28;45372;-59
2023/04/30 07:35:08;;;;;;;;;;;19.40;51.20;;;;;;4914096;28;46076;-62
2023/04/30 07:37:34;;;;;;;;;;;19.40;51.10;;;;;;4905017;28;45272;-60
2023/04/30 07:39:59;;;;;;;;;;;19.40;51.10;;;;;;4923702;28;45167;-58
2023/04/30 07:42:25;;;;;;;;;;;19.50;51.10;;;;;;4922657;28;45774;-57
2023/04/30 07:44:51;;;;;;;;;;;19.50;51.10;;;;;;4922160;28;46972;-58
2023/04/30 07:47:18;;;;;;;;;;;19.50;51.10;;;;;;4900274;28;45711;-57
2023/04/30 07:49:45;;;;;;;;;;;19.50;51.00;;;;;;4906736;28;45598;-58
2023/04/30 07:52:11;;;;;;;;;;;19.50;51.00;;;;;;4919615;28;45505;-56
2023/04/30 07:54:37;;;;;;;;;;;19.50;51.00;;;;;;4920170;28;45659;-59
2023/04/30 07:57:04;;;;;;;;;;;19.60;51.00;;;;;;4900798;28;45063;-59
2023/04/30 07:59:29;;;;;;;;;;;19.60;51.00;;;;;;4901135;28;45408;-59
2023/04/30 08:01:55;;;;;;;;;;;19.60;51.00;;;;;;4875533;28;45977;-56
2023/04/30 08:04:20;;;;;;;;;;;19.60;50.90;;;;;;4902975;28;46124;-59
2023/04/30 08:06:46;;;;;;;;;;;19.60;50.90;;;;;;4912533;28;44775;-56
2023/04/30 08:09:11;;;;;;;;;;;19.70;50.90;;;;;;4905255;28;45640;-57
2023/04/30 08:11:37;;;;;;;;;;;19.70;50.90;;;;;;4917941;28;45026;-59
2023/04/30 08:14:03;;;;;;;;;;;19.60;50.90;;;;;;4922513;28;45037;-57
2023/04/30 08:16:29;;;;;;;;;;;19.60;50.80;;;;;;4910721;28;45106;-60
2023/04/30 08:18:54;;;;;;;;;;;19.70;50.90;;;;;;4905320;28;44890;-58
2023/04/30 08:21:20;;;;;;;;;;;19.70;50.80;;;;;;4910951;28;45560;-54
2023/04/30 08:23:46;;;;;;;;;;;19.70;50.80;;;;;;4918921;28;45782;-60
2023/04/30 08:26:11;;;;;;;;;;;19.70;50.80;;;;;;4920624;28;45086;-59
2023/04/30 08:28:37;;;;;;;;;;;19.70;50.70;;;;;;4915268;28;45807;-58
2023/04/30 08:31:02;;;;;;;;;;;19.80;50.70;;;;;;4880603;28;45641;-59
2023/04/30 08:33:28;;;;;;;;;;;19.80;50.70;;;;;;4912789;28;48256;-58
2023/04/30 08:35:53;;;;;;;;;;;19.80;50.70;;;;;;4885503;28;45292;-59
2023/04/30 08:38:19;;;;;;;;;;;19.80;50.70;;;;;;4924052;28;44729;-59
2023/04/30 08:40:46;;;;;;;;;;;19.80;50.50;;;;;;4922234;28;45277;-60
2023/04/30 08:43:12;;;;;;;;;;;19.80;50.60;;;;;;4923970;28;52441;-59
2023/04/30 08:45:37;;;;;;;;;;;19.80;49.80;;;;;;4917319;28;46168;-60
2023/04/30 08:48:06;;;;;;;;;;;19.90;49.10;;;;;;4912702;28;45519;-60
2023/04/30 08:50:32;;;;;;;;;;;19.90;48.40;;;;;;4905128;28;45418;-60
2023/04/30 08:52:57;;;;;;;;;;;19.90;47.80;;;;;;4925247;28;46119;-60
2023/04/30 08:55:25;;;;;;;;;;;19.90;47.80;;;;;;4903123;28;45216;-61
2023/04/30 08:57:50;;;;;;;;;;;19.90;47.80;;;;;;4911905;28;45479;-59
2023/04/30 09:00:16;;;;;;;;;;;19.90;47.60;;;;;;4923312;28;45332;-60
2023/04/30 09:02:41;;;;;;;;;;;19.90;47.60;;;;;;4899585;28;45758;-60
2023/04/30 09:05:11;;;;;;;;;;;19.90;47.20;;;;;;4918348;28;45459;-58
2023/04/30 09:07:37;;;;;;;;;;;19.90;47.50;;;;;;4903024;28;45576;-61
2023/04/30 09:10:03;;;;;;;;;;;19.90;47.40;;;;;;4911056;28;45473;-61
2023/04/30 09:12:29;;;;;;;;;;;19.90;47.40;;;;;;4911669;28;45917;-59
2023/04/30 09:15:01;;;;;;;;;;;20.00;47.30;;;;;;4926573;28;46192;-59
2023/04/30 09:17:26;;;;;;;;;;;20.00;47.30;;;;;;4921686;28;45244;-60
2023/04/30 09:19:52;;;;;;;;;;;20.10;47.10;;;;;;4914737;28;45259;-60
2023/04/30 09:22:18;;;;;;;;;;;20.10;46.90;;;;;;4921483;28;46530;-60
2023/04/30 09:24:48;;;;;;;;;;;20.10;46.70;;;;;;4928956;28;45186;-60
2023/04/30 09:27:17;;;;;;;;;;;20.10;46.00;;;;;;4925820;28;45257;-59
2023/04/30 09:29:43;;;;;;;;;;;20.10;45.90;;;;;;4912930;28;45133;-62
2023/04/30 09:32:09;;;;;;;;;;;20.10;45.90;;;;;;4905786;28;47087;-61
2023/04/30 09:34:34;;;;;;;;;;;20.20;45.60;;;;;;4923067;28;45016;-59
2023/04/30 09:37:00;;;;;;;;;;;20.20;45.60;;;;;;4904083;28;45488;-62
2023/04/30 09:39:25;;;;;;;;;;;20.20;45.00;;;;;;4929185;28;45218;-61
2023/04/30 09:41:51;;;;;;;;;;;20.20;44.90;;;;;;4904158;28;45405;-60
2023/04/30 09:44:26;;;;;;;;;;;20.30;44.80;;;;;;4908227;28;45737;-60
2023/04/30 09:46:52;;;;;;;;;;;20.30;44.50;;;;;;4917985;28;44684;-60
2023/04/30 09:49:17;;;;;;;;;;;20.30;44.20;;;;;;4926056;28;46629;-58
2023/04/30 09:51:59;;;;;;;;;;;20.30;44.40;;;;;;4906601;28;46037;-59
2023/04/30 09:54:26;;;;;;;;;;;20.30;43.80;;;;;;4908980;28;45438;-58
2023/04/30 09:56:57;;;;;;;;;;;20.30;43.90;;;;;;4919779;28;44706;-59
2023/04/30 09:59:24;;;;;;;;;;;20.30;44.20;;;;;;4914831;28;45565;-61
2023/04/30 10:01:49;;;;;;;;;;;20.30;43.90;;;;;;4913768;28;46237;-60
2023/04/30 10:04:16;;;;;;;;;;;20.30;43.70;;;;;;4914180;28;46411;-59
2023/04/30 10:06:42;;;;;;;;;;;20.30;43.60;;;;;;4905776;28;46208;-59
2023/04/30 10:09:07;;;;;;;;;;;20.30;44.00;;;;;;4917292;28;45387;-61
2023/04/30 10:11:33;;;;;;;;;;;20.30;43.50;;;;;;4892714;28;47568;-60
2023/04/30 10:14:02;;;;;;;;;;;20.30;43.50;;;;;;4931423;28;44728;-59
2023/04/30 10:16:50;;;;;;;;;;;20.30;43.00;;;;;;4920521;28;45596;-62
2023/04/30 10:19:17;;;;;;;;;;;20.40;43.10;;;;;;4907316;28;46452;-60
2023/04/30 10:21:44;;;;;;;;;;;20.40;43.50;;;;;;4903075;28;46696;-61
2023/04/30 10:24:11;;;;;;;;;;;20.40;43.20;;;;;;4929217;28;45513;-61
2023/04/30 10:26:37;;;;;;;;;;;20.40;43.20;;;;;;4906637;28;44808;-60
2023/04/30 10:29:02;;;;;;;;;;;20.40;43.00;;;;;;4927195;28;45638;-61
2023/04/30 10:31:28;;;;;;;;;;;20.40;43.00;;;;;;4914762;28;47058;-61
2023/04/30 10:34:03;;;;;;;;;;;20.40;42.80;;;;;;4892387;28;44725;-61
2023/04/30 10:36:32;;;;;;;;;;;20.40;43.00;;;;;;4926195;28;45367;-59
2023/04/30 10:38:57;;;;;;;;;;;20.40;42.40;;;;;;4927159;28;45583;-59
2023/04/30 10:41:24;;;;;;;;;;;20.40;42.40;;;;;;4903202;28;46177;-61
2023/04/30 10:43:49;;;;;;;;;;;20.50;42.10;;;;;;4914118;28;45046;-62
2023/04/30 10:46:20;;;;;;;;;;;20.50;42.80;;;;;;4906018;28;45250;-59
2023/04/30 10:48:46;;;;;;;;;;;20.50;41.90;;;;;;4922435;28;46060;-60
2023/04/30 10:51:12;;;;;;;;;;;20.50;41.70;;;;;;4905742;28;45648;-60
2023/04/30 10:53:39;;;;;;;;;;;20.60;41.20;;;;;;4914292;28;45425;-61
2023/04/30 10:56:07;;;;;;;;;;;20.60;41.00;;;;;;4905262;28;45254;-60
2023/04/30 10:58:33;;;;;;;;;;;20.60;40.90;;;;;;4913928;28;46040;-61
2023/04/30 11:01:17;;;;;;;;;;;20.60;40.80;;;;;;4917308;28;45474;-62
2023/04/30 11:04:02;;;;;;;;;;;20.60;40.90;;;;;;4907678;28;45293;-60
2023/04/30 11:06:28;;;;;;;;;;;20.60;40.70;;;;;;4922034;28;45758;-59
2023/04/30 11:08:54;;;;;;;;;;;20.60;40.90;;;;;;4911989;28;45456;-60
2023/04/30 11:11:22;;;;;;;;;;;20.70;41.20;;;;;;4902482;28;45490;-58
2023/04/30 11:13:58;;;;;;;;;;;20.60;41.00;;;;;;4927336;28;46006;-60
2023/04/30 11:16:30;;;;;;;;;;;20.70;40.90;;;;;;4895811;28;45361;-59
2023/04/30 11:19:04;;;;;;;;;;;20.70;41.20;;;;;;4897009;28;45643;-60
2023/04/30 11:21:31;;;;;;;;;;;20.70;41.10;;;;;;4903619;28;45230;-60
2023/04/30 11:24:01;;;;;;;;;;;20.70;41.00;;;;;;4922012;28;45523;-57
2023/04/30 11:26:26;;;;;;;;;;;20.70;41.30;;;;;;4905693;28;45941;-60
2023/04/30 11:28:53;;;;;;;;;;;20.70;41.80;;;;;;4928206;28;45743;-61
2023/04/30 11:31:18;;;;;;;;;;;20.70;41.50;;;;;;4922001;28;45653;-59
2023/04/30 11:33:44;;;;;;;;;;;20.80;41.20;;;;;;4909635;28;45586;-59
2023/04/30 11:36:09;;;;;;;;;;;20.80;40.80;;;;;;4921053;28;45380;-60
2023/04/30 11:38:35;;;;;;;;;;;20.80;40.90;;;;;;4926006;28;45769;-60
2023/04/30 11:41:01;;;;;;;;;;;20.80;40.20;;;;;;4923778;28;45555;-59
2023/04/30 11:43:30;;;;;;;;;;;20.80;40.40;;;;;;4910005;28;44764;-59
2023/04/30 11:46:03;;;;;;;;;;;20.80;40.50;;;;;;4897206;28;44729;-60
2023/04/30 11:48:35;;;;;;;;;;;20.80;41.00;;;;;;4910433;28;45349;-59
2023/04/30 11:51:19;;;;;;;;;;;20.90;39.60;;;;;;4908385;28;46314;-60
2023/04/30 11:53:45;;;;;;;;;;;20.90;39.80;;;;;;4924897;28;45266;-60
2023/04/30 11:56:11;;;;;;;;;;;21.00;39.40;;;;;;4891502;28;45246;-60
2023/04/30 11:58:39;;;;;;;;;;;21.00;39.00;;;;;;4926523;28;45263;-57
2023/04/30 12:01:05;;;;;;;;;;;21.00;38.70;;;;;;4917085;28;45845;-60
2023/04/30 12:03:31;;;;;;;;;;;21.00;38.90;;;;;;4906355;28;44930;-60
2023/04/30 12:05:56;;;;;;;;;;;21.00;38.70;;;;;;4923724;28;45187;-60
2023/04/30 12:08:22;;;;;;;;;;;21.10;38.80;;;;;;4927972;28;45274;-59
2023/04/30 12:10:48;;;;;;;;;;;21.10;38.80;;;;;;4923720;28;46102;-60
2023/04/30 12:13:15;;;;;;;;;;;21.10;38.80;;;;;;4924610;28;45261;-61
2023/04/30 12:15:40;;;;;;;;;;;21.10;38.80;;;;;;4907764;28;44755;-60
2023/04/30 12:18:12;;;;;;;;;;;21.10;39.20;;;;;;4913330;28;45817;-61
2023/04/30 12:20:38;;;;;;;;;;;21.10;39.10;;;;;;4923360;28;45431;-58
2023/04/30 12:23:04;;;;;;;;;;;21.10;39.50;;;;;;4914876;28;45265;-60
2023/04/30 12:25:29;;;;;;;;;;;21.10;39.50;;;;;;4906349;28;45345;-58
2023/04/30 12:27:57;;;;;;;;;;;21.20;39.50;;;;;;4916206;28;44763;-58
2023/04/30 12:30:23;;;;;;;;;;;21.20;39.10;;;;;;4888727;28;47279;-59
2023/04/30 12:32:49;;;;;;;;;;;21.20;39.40;;;;;;4926721;28;45068;-59
2023/04/30 12:35:16;;;;;;;;;;;21.20;39.30;;;;;;4910140;28;45248;-59
2023/04/30 12:37:44;;;;;;;;;;;21.20;39.30;;;;;;4929352;28;45147;-57
2023/04/30 12:40:10;;;;;;;;;;;21.20;38.90;;;;;;4921701;28;45213;-60
2023/04/30 12:42:36;;;;;;;;;;;21.30;38.50;;;;;;4911387;28;45298;-59
2023/04/30 12:45:02;;;;;;;;;;;21.30;38.90;;;;;;4924912;28;46297;-56
2023/04/30 12:47:28;;;;;;;;;;;21.30;38.00;;;;;;4905363;28;45129;-59
2023/04/30 12:49:53;;;;;;;;;;;21.30;37.80;;;;;;4932618;28;45495;-62
2023/04/30 12:52:22;;;;;;;;;;;21.40;37.50;;;;;;4892371;28;45218;-60
2023/04/30 12:54:47;;;;;;;;;;;21.40;37.70;;;;;;4926081;28;45465;-59
2023/04/30 12:57:12;;;;;;;;;;;21.40;37.70;;;;;;4921260;28;45846;-59
2023/04/30 12:59:39;;;;;;;;;;;21.40;37.70;;;;;;4931189;28;45301;-58
2023/04/30 13:02:05;;;;;;;;;;;21.40;37.10;;;;;;4901410;28;45262;-59
2023/04/30 13:04:31;;;;;;;;;;;21.40;37.10;;;;;;4926662;28;45207;-58
2023/04/30 13:06:57;;;;;;;;;;;21.40;37.10;;;;;;4928992;28;45451;-57
2023/04/30 13:09:22;;;;;;;;;;;21.40;35.90;;;;;;4907395;28;45604;-59
2023/04/30 13:11:49;;;;;;;;;;;21.40;35.70;;;;;;4926435;28;45233;-60
2023/04/30 13:14:16;;;;;;;;;;;21.40;35.80;;;;;;4927566;28;45433;-60
2023/04/30 13:16:42;;;;;;;;;;;21.30;35.90;;;;;;4923713;28;45370;-58
2023/04/30 13:19:07;;;;;;;;;;;21.40;36.00;;;;;;4930306;28;46117;-60
2023/04/30 13:21:33;;;;;;;;;;;21.30;36.00;;;;;;4925558;28;45377;-59
2023/04/30 13:23:58;;;;;;;;;;;21.30;35.70;;;;;;4931618;28;45841;-60
2023/04/30 13:26:25;;;;;;;;;;;21.30;35.60;;;;;;4920621;28;45317;-59
2023/04/30 13:28:50;;;;;;;;;;;21.30;36.30;;;;;;4929778;28;45562;-58
2023/04/30 13:31:16;;;;;;;;;;;21.30;35.30;;;;;;4919299;28;45246;-60
2023/04/30 13:33:41;;;;;;;;;;;21.30;35.00;;;;;;4926914;28;45363;-60
2023/04/30 13:36:07;;;;;;;;;;;21.30;35.00;;;;;;4921247;28;44854;-58
2023/04/30 13:38:32;;;;;;;;;;;21.30;35.20;;;;;;4928972;28;45809;-59
2023/04/30 13:40:58;;;;;;;;;;;21.30;35.60;;;;;;4926320;28;45241;-58
2023/04/30 13:43:23;;;;;;;;;;;21.30;35.80;;;;;;4928610;28;45877;-59
2023/04/30 13:45:49;;;;;;;;;;;21.30;36.00;;;;;;4919411;28;45366;-59
2023/04/30 13:48:14;;;;;;;;;;;21.40;36.20;;;;;;4921754;28;45682;-60
2023/04/30 13:50:40;;;;;;;;;;;21.30;36.00;;;;;;4929084;28;44907;-58
2023/04/30 13:53:05;;;;;;;;;;;21.30;35.60;;;;;;4929948;28;44742;-60
2023/04/30 13:55:32;;;;;;;;;;;21.30;35.50;;;;;;4908297;28;45653;-58
2023/04/30 13:57:57;;;;;;;;;;;21.30;35.30;;;;;;4910797;28;46140;-60
2023/04/30 14:00:23;;;;;;;;;;;21.30;35.20;;;;;;4924922;28;45583;-59
2023/04/30 14:02:48;;;;;;;;;;;21.30;35.00;;;;;;4927601;28;45163;-57
2023/04/30 14:05:14;;;;;;;;;;;21.30;35.00;;;;;;4920390;28;45351;-58
2023/04/30 14:07:40;;;;;;;;;;;21.30;35.20;;;;;;4908921;28;47349;-58
2023/04/30 14:10:06;;;;;;;;;;;21.30;35.60;;;;;;4925653;28;45158;-60
2023/04/30 14:12:32;;;;;;;;;;;21.30;35.70;;;;;;4896733;28;45330;-60
2023/04/30 14:14:57;;;;;;;;;;;21.30;36.40;;;;;;4925604;28;45775;-59
2023/04/30 14:17:23;;;;;;;;;;;21.30;35.90;;;;;;4904390;28;46028;-58
2023/04/30 14:19:49;;;;;;;;;;;21.30;36.30;;;;;;4924939;28;45476;-59
2023/04/30 14:22:15;;;;;;;;;;;21.30;36.30;;;;;;4909371;28;45291;-60
2023/04/30 14:24:41;;;;;;;;;;;21.30;35.90;;;;;;4926549;28;45834;-60
2023/04/30 14:27:06;;;;;;;;;;;21.30;35.10;;;;;;4906680;28;45490;-58
2023/04/30 14:29:32;;;;;;;;;;;21.20;34.70;;;;;;4922254;28;45216;-59
2023/04/30 14:31:57;;;;;;;;;;;21.20;34.90;;;;;;4912244;28;45309;-60
2023/04/30 14:34:23;;;;;;;;;;;21.20;35.20;;;;;;4927589;28;45776;-60
2023/04/30 14:36:48;;;;;;;;;;;21.20;35.60;;;;;;4920378;28;45624;-60
2023/04/30 14:39:14;;;;;;;;;;;21.20;35.00;;;;;;4911701;28;45744;-60
2023/04/30 14:41:40;;;;;;;;;;;21.20;35.20;;;;;;4898944;28;45783;-59
2023/04/30 14:44:05;;;;;;;;;;;21.20;34.60;;;;;;4925415;28;45316;-60
2023/04/30 14:46:32;;;;;;;;;;;21.20;35.10;;;;;;4918686;28;45474;-60
2023/04/30 14:48:58;;;;;;;;;;;21.20;35.30;;;;;;4925112;28;45722;-61
2023/04/30 14:51:23;;;;;;;;;;;21.20;35.00;;;;;;4920976;28;45186;-59
2023/04/30 14:53:49;;;;;;;;;;;21.20;35.00;;;;;;4926619;28;45364;-60
2023/04/30 14:56:14;;;;;;;;;;;21.20;34.80;;;;;;4915187;28;46874;-60
2023/04/30 14:58:40;;;;;;;;;;;21.20;34.80;;;;;;4910094;28;46374;-60
2023/04/30 15:01:05;;;;;;;;;;;21.20;34.30;;;;;;4912593;28;45698;-60
2023/04/30 15:03:31;;;;;;;;;;;21.20;34.50;;;;;;4882665;28;45244;-59
2023/04/30 15:05:57;;;;;;;;;;;21.20;34.20;;;;;;4898122;28;45940;-60
2023/04/30 15:08:22;;;;;;;;;;;21.10;33.70;;;;;;4899044;28;45518;-60
2023/04/30 15:10:48;;;;;;;;;;;21.20;34.30;;;;;;4900739;28;44756;-60
2023/04/30 15:13:13;;;;;;;;;;;21.20;34.50;;;;;;4900261;28;45837;-60
2023/04/30 15:15:39;;;;;;;;;;;21.20;34.40;;;;;;4897234;28;45928;-60
2023/04/30 15:18:06;;;;;;;;;;;21.20;34.50;;;;;;4876110;28;45990;-59
2023/04/30 15:20:31;;;;;;;;;;;21.10;34.70;;;;;;4887684;28;46362;-59
2023/04/30 15:22:57;;;;;;;;;;;21.10;35.20;;;;;;4908158;28;45770;-58
2023/04/30 15:25:22;;;;;;;;;;;21.20;34.90;;;;;;4898747;28;46115;-58
2023/04/30 15:27:49;;;;;;;;;;;21.10;34.30;;;;;;4910008;28;44694;-59
2023/04/30 15:30:15;;;;;;;;;;;21.20;34.20;;;;;;4898948;28;44730;-61
2023/04/30 15:32:40;;;;;;;;;;;21.10;33.80;;;;;;4904808;28;47979;-57
2023/04/30 15:35:06;;;;;;;;;;;21.10;34.00;;;;;;4888640;28;46135;-59
2023/04/30 15:37:33;;;;;;;;;;;21.00;33.70;;;;;;4880701;28;44738;-58
2023/04/30 15:39:59;;;;;;;;;;;21.00;33.90;;;;;;4892526;28;44666;-60
2023/04/30 15:42:24;;;;;;;;;;;21.00;33.70;;;;;;4884869;28;45569;-57
2023/04/30 15:44:51;;;;;;;;;;;21.00;33.80;;;;;;4903341;28;45470;-61
2023/04/30 15:47:16;;;;;;;;;;;21.00;33.70;;;;;;4891125;28;45246;-60
2023/04/30 15:49:42;;;;;;;;;;;21.00;33.70;;;;;;4895754;28;45297;-59
2023/04/30 15:52:08;;;;;;;;;;;21.00;34.30;;;;;;4900923;28;44937;-60
2023/04/30 15:54:34;;;;;;;;;;;21.00;35.10;;;;;;4890831;28;45133;-60
2023/04/30 15:57:00;;;;;;;;;;;21.00;35.00;;;;;;4888503;28;44803;-60
2023/04/30 15:59:26;;;;;;;;;;;21.00;35.20;;;;;;4908316;28;44749;-58
2023/04/30 16:01:52;;;;;;;;;;;21.00;35.30;;;;;;4908221;28;45279;-60
2023/04/30 16:04:17;;;;;;;;;;;21.00;35.50;;;;;;4899607;28;46976;-60
2023/04/30 16:06:43;;;;;;;;;;;21.10;35.70;;;;;;4904180;28;45351;-59
2023/04/30 16:09:09;;;;;;;;;;;21.10;35.80;;;;;;4908317;28;44739;-58
2023/04/30 16:11:35;;;;;;;;;;;21.00;36.00;;;;;;4925581;28;45774;-60
2023/04/30 16:14:01;;;;;;;;;;;21.10;35.90;;;;;;4928037;28;46405;-58
2023/04/30 16:16:27;;;;;;;;;;;21.00;36.10;;;;;;4895668;28;45781;-60
2023/04/30 16:18:52;;;;;;;;;;;21.00;36.30;;;;;;4923951;28;45703;-59
2023/04/30 16:21:18;;;;;;;;;;;21.00;36.40;;;;;;4919858;28;45684;-60
2023/04/30 16:23:44;;;;;;;;;;;21.00;36.60;;;;;;4911815;28;46478;-60
2023/04/30 16:26:09;;;;;;;;;;;21.00;36.70;;;;;;4921870;28;45351;-60
2023/04/30 16:28:35;;;;;;;;;;;21.00;36.70;;;;;;4919876;28;45593;-60
2023/04/30 16:31:00;;;;;;;;;;;21.00;36.90;;;;;;4897688;28;45498;-58
2023/04/30 16:33:26;;;;;;;;;;;21.00;36.90;;;;;;4909138;28;45698;-59
2023/04/30 16:35:53;;;;;;;;;;;21.00;37.00;;;;;;4920681;28;44753;-60
2023/04/30 16:38:19;;;;;;;;;;;20.90;37.10;;;;;;4923430;28;44730;-60
2023/04/30 16:40:44;;;;;;;;;;;21.00;37.20;;;;;;4891841;28;46947;-60
2023/04/30 16:43:11;;;;;;;;;;;20.90;37.20;;;;;;4927819;28;45391;-60
2023/04/30 16:45:36;;;;;;;;;;;21.00;37.40;;;;;;4913355;28;45967;-61
2023/04/30 16:48:02;;;;;;;;;;;21.00;37.60;;;;;;4908881;28;45917;-58
2023/04/30 16:50:28;;;;;;;;;;;21.00;37.60;;;;;;4913935;28;46040;-61
2023/04/30 16:52:53;;;;;;;;;;;21.00;37.70;;;;;;4906244;28;45946;-59
2023/04/30 16:55:19;;;;;;;;;;;21.00;37.80;;;;;;4922148;28;45309;-61
2023/04/30 16:57:44;;;;;;;;;;;21.00;37.80;;;;;;4924048;28;44922;-60
2023/04/30 17:00:12;;;;;;;;;;;20.90;37.90;;;;;;4921838;28;45249;-60
2023/04/30 17:02:44;;;;;;;;;;;21.00;38.10;;;;;;4889146;28;46297;-60
2023/04/30 17:05:10;;;;;;;;;;;20.90;38.20;;;;;;4918282;28;45117;-61
2023/04/30 17:07:35;;;;;;;;;;;21.00;38.40;;;;;;4925089;28;45727;-60
2023/04/30 17:10:01;;;;;;;;;;;20.90;38.50;;;;;;4903961;28;45487;-61